createdAt,value
2023-04-20T00:00:11.710Z,99.90
2023-04-20T00:02:41.896Z,99.90
2023-04-20T00:05:10.813Z,99.90
2023-04-20T00:07:38.912Z,99.90
2023-04-20T00:10:08.864Z,99.90
2023-04-20T00:12:36.194Z,99.90
2023-04-20T00:15:04.054Z,99.90
2023-04-20T00:17:31.288Z,99.90
2023-04-20T00:19:58.750Z,99.90
2023-04-20T00:22:26.454Z,99.90
2023-04-20T00:24:53.805Z,99.90
2023-04-20T00:27:21.019Z,99.90
2023-04-20T00:29:48.408Z,99.90
2023-04-20T00:32:15.657Z,99.90
2023-04-20T00:34:42.910Z,99.90
2023-04-20T00:37:10.196Z,99.90
2023-04-20T00:39:37.495Z,99.90
2023-04-20T00:42:06.808Z,99.90
2023-04-20T00:44:34.363Z,99.90
2023-04-20T00:47:01.578Z,99.90
2023-04-20T00:49:30.573Z,99.90
2023-04-20T00:51:59.239Z,99.90
2023-04-20T00:54:28.546Z,99.90
2023-04-20T00:56:58.240Z,99.90
2023-04-20T00:59:25.685Z,99.90
2023-04-20T01:01:53.391Z,99.90
2023-04-20T01:04:21.282Z,99.90
2023-04-20T01:06:48.659Z,99.90
2023-04-20T01:09:16.437Z,99.90
2023-04-20T01:11:44.994Z,99.90
2023-04-20T01:14:16.854Z,99.90
2023-04-20T01:16:44.998Z,99.90
2023-04-20T01:19:13.362Z,99.90
2023-04-20T01:21:41.155Z,99.90
2023-04-20T01:24:08.534Z,99.90
2023-04-20T01:26:35.784Z,99.90
2023-04-20T01:29:03.020Z,99.90
2023-04-20T01:31:30.776Z,99.90
2023-04-20T01:33:58.965Z,99.90
2023-04-20T01:36:27.259Z,99.90
2023-04-20T01:38:54.504Z,99.90
2023-04-20T01:41:21.948Z,99.90
2023-04-20T01:43:49.273Z,99.90
2023-04-20T01:46:16.582Z,99.90
2023-04-20T01:48:43.807Z,99.90
2023-04-20T01:51:11.084Z,99.90
2023-04-20T01:53:39.666Z,99.90
2023-04-20T01:56:07.921Z,99.90
2023-04-20T01:58:35.835Z,99.90
2023-04-20T02:01:03.160Z,99.90
2023-04-20T02:03:31.017Z,99.90
2023-04-20T02:05:58.514Z,99.90
2023-04-20T02:08:30.195Z,99.90
2023-04-20T02:10:57.553Z,99.90
2023-04-20T02:13:24.907Z,99.90
2023-04-20T02:15:52.325Z,99.90
2023-04-20T02:18:19.526Z,99.90
2023-04-20T02:20:46.946Z,99.90
2023-04-20T02:23:14.124Z,99.90
2023-04-20T02:25:41.381Z,99.90
2023-04-20T02:28:08.674Z,99.90
2023-04-20T02:30:38.923Z,99.90
2023-04-20T02:33:07.081Z,99.90
2023-04-20T02:35:34.534Z,99.90
2023-04-20T02:38:01.741Z,99.90
2023-04-20T02:40:28.984Z,99.90
2023-04-20T02:42:56.300Z,99.90
2023-04-20T02:45:23.815Z,99.90
2023-04-20T02:47:51.422Z,99.90
2023-04-20T02:50:19.007Z,99.90
2023-04-20T02:53:00.887Z,99.90
2023-04-20T02:55:29.706Z,99.90
2023-04-20T02:58:00.707Z,99.90
2023-04-20T03:00:46.046Z,99.90
2023-04-20T03:03:13.421Z,99.90
2023-04-20T03:05:41.202Z,99.90
2023-04-20T03:08:08.735Z,99.90
2023-04-20T03:10:36.229Z,99.90
2023-04-20T03:13:05.014Z,99.90
2023-04-20T03:15:36.996Z,99.90
2023-04-20T03:18:05.881Z,99.90
2023-04-20T03:20:33.079Z,99.90
2023-04-20T03:23:00.667Z,99.90
2023-04-20T03:25:29.566Z,99.90
2023-04-20T03:27:59.778Z,99.90
2023-04-20T03:30:27.631Z,99.90
2023-04-20T03:33:00.987Z,99.90
2023-04-20T03:35:28.763Z,99.90
2023-04-20T03:37:56.244Z,99.90
2023-04-20T03:40:23.833Z,99.90
2023-04-20T03:42:51.102Z,99.90
2023-04-20T03:45:18.472Z,99.90
2023-04-20T03:47:45.699Z,99.90
2023-04-20T03:50:13.051Z,99.90
2023-04-20T03:52:41.066Z,99.90
2023-04-20T03:55:09.672Z,99.90
2023-04-20T03:57:40.447Z,99.90
2023-04-20T04:00:10.842Z,99.90
2023-04-20T04:02:39.791Z,99.90
2023-04-20T04:05:08.305Z,99.90
2023-04-20T04:07:35.519Z,99.90
2023-04-20T04:10:05.053Z,99.90
2023-04-20T04:12:33.029Z,99.90
2023-04-20T04:15:00.539Z,99.90
2023-04-20T04:17:31.741Z,99.90
2023-04-20T04:19:59.461Z,99.90
2023-04-20T04:22:29.268Z,99.90
2023-04-20T04:24:59.241Z,99.90
2023-04-20T04:27:29.901Z,99.90
2023-04-20T04:29:57.185Z,99.90
2023-04-20T04:32:24.793Z,99.90
2023-04-20T04:34:53.153Z,99.90
2023-04-20T04:37:20.380Z,99.90
2023-04-20T04:39:52.141Z,99.90
2023-04-20T04:42:24.803Z,99.90
2023-04-20T04:44:53.789Z,99.90
2023-04-20T04:47:29.632Z,99.90
2023-04-20T04:49:57.000Z,99.90
2023-04-20T04:52:24.101Z,99.90
2023-04-20T04:54:51.421Z,99.90
2023-04-20T04:57:18.591Z,99.90
2023-04-20T04:59:45.929Z,99.90
2023-04-20T05:02:13.117Z,99.90
2023-04-20T05:04:40.646Z,99.90
2023-04-20T05:07:10.410Z,99.90
2023-04-20T05:09:37.895Z,99.90
2023-04-20T05:12:05.102Z,99.90
2023-04-20T05:14:32.487Z,99.90
2023-04-20T05:17:01.342Z,99.90
2023-04-20T05:19:28.680Z,99.90
2023-04-20T05:21:55.797Z,99.90
2023-04-20T05:24:23.075Z,99.90
2023-04-20T05:26:50.275Z,99.90
2023-04-20T05:29:17.871Z,99.90
2023-04-20T05:31:45.511Z,99.90
2023-04-20T05:34:12.925Z,99.90
2023-04-20T05:36:41.545Z,99.90
2023-04-20T05:39:08.926Z,99.90
2023-04-20T05:41:36.135Z,99.90
2023-04-20T05:44:03.405Z,99.90
2023-04-20T05:46:30.614Z,99.90
2023-04-20T05:48:57.863Z,99.90
2023-04-20T05:51:29.048Z,99.90
2023-04-20T05:53:56.302Z,99.90
2023-04-20T05:56:23.557Z,99.90
2023-04-20T05:58:50.829Z,99.90
2023-04-20T06:01:18.468Z,99.90
2023-04-20T06:03:46.019Z,99.90
2023-04-20T06:06:14.881Z,99.90
2023-04-20T06:08:43.742Z,99.90
2023-04-20T06:11:10.931Z,99.90
2023-04-20T06:13:38.240Z,99.90
2023-04-20T06:16:09.710Z,99.90
2023-04-20T06:18:37.690Z,99.90
2023-04-20T06:21:04.894Z,99.90
2023-04-20T06:23:32.100Z,99.90
2023-04-20T06:25:59.306Z,99.90
2023-04-20T06:28:26.870Z,99.90
2023-04-20T06:30:54.055Z,99.90
2023-04-20T06:33:21.381Z,99.90
2023-04-20T06:35:48.523Z,99.90
2023-04-20T06:38:15.733Z,99.90
2023-04-20T06:40:42.928Z,99.90
2023-04-20T06:43:10.112Z,99.90
2023-04-20T06:45:37.359Z,99.90
2023-04-20T06:48:04.839Z,99.90
2023-04-20T06:50:32.116Z,99.90
2023-04-20T06:52:59.295Z,99.90
2023-04-20T06:55:26.527Z,99.90
2023-04-20T06:57:53.725Z,99.90
2023-04-20T07:00:20.908Z,99.90
2023-04-20T07:02:51.281Z,99.90
2023-04-20T07:05:19.385Z,99.90
2023-04-20T07:07:46.577Z,99.90
2023-04-20T07:10:15.111Z,99.90
2023-04-20T07:12:44.119Z,99.90
2023-04-20T07:15:12.898Z,99.90
2023-04-20T07:17:40.605Z,99.90
2023-04-20T07:20:08.959Z,99.90
2023-04-20T07:22:37.032Z,99.90
2023-04-20T07:25:06.256Z,99.90
2023-04-20T07:27:36.580Z,99.90
2023-04-20T07:30:06.366Z,99.90
2023-04-20T07:32:34.823Z,99.90
2023-04-20T07:35:02.085Z,99.90
2023-04-20T07:37:29.917Z,99.90
2023-04-20T07:39:57.055Z,99.90
2023-04-20T07:42:24.293Z,99.90
2023-04-20T07:44:51.578Z,99.90
2023-04-20T07:47:18.910Z,99.90
2023-04-20T07:49:46.679Z,99.90
2023-04-20T07:52:16.776Z,99.90
2023-04-20T07:54:45.764Z,99.90
2023-04-20T07:57:12.972Z,99.90
2023-04-20T07:59:40.937Z,99.90
2023-04-20T08:02:09.698Z,99.90
2023-04-20T08:04:38.538Z,99.90
2023-04-20T08:07:05.893Z,99.90
2023-04-20T08:09:33.348Z,99.90
2023-04-20T08:12:00.756Z,99.90
2023-04-20T08:14:28.101Z,99.90
2023-04-20T08:16:55.657Z,99.90
2023-04-20T08:19:23.480Z,99.90
2023-04-20T08:21:52.051Z,99.90
2023-04-20T08:24:20.921Z,99.90
2023-04-20T08:26:48.359Z,99.90
2023-04-20T08:29:15.833Z,99.90
2023-04-20T08:31:43.295Z,99.90
2023-04-20T08:34:12.040Z,99.90
2023-04-20T08:36:39.169Z,99.90
2023-04-20T08:39:09.449Z,99.90
2023-04-20T08:41:37.036Z,99.90
2023-04-20T08:44:05.033Z,99.90
2023-04-20T08:46:33.708Z,99.90
2023-04-20T08:49:04.418Z,99.90
2023-04-20T08:51:32.849Z,99.90
2023-04-20T08:54:06.086Z,99.90
2023-04-20T08:56:35.512Z,99.90
2023-04-20T08:59:05.436Z,99.90
2023-04-20T09:01:36.186Z,99.90
2023-04-20T09:04:18.850Z,99.90
2023-04-20T09:06:50.447Z,99.90
2023-04-20T09:09:18.692Z,99.90
2023-04-20T09:11:46.370Z,99.90
2023-04-20T09:14:17.294Z,99.90
2023-04-20T09:16:47.964Z,99.90
2023-04-20T09:19:15.197Z,99.90
2023-04-20T09:21:45.888Z,99.90
2023-04-20T09:24:13.168Z,99.90
2023-04-20T09:26:41.009Z,99.90
2023-04-20T09:29:11.289Z,99.90
2023-04-20T09:31:38.498Z,99.90
2023-04-20T09:34:05.833Z,99.90
2023-04-20T09:36:37.663Z,99.30
2023-04-20T09:39:10.697Z,99.00
2023-04-20T09:41:41.160Z,98.50
2023-04-20T09:44:09.995Z,99.10
2023-04-20T09:46:39.552Z,98.50
2023-04-20T09:49:09.402Z,98.20
2023-04-20T09:51:38.570Z,96.70
2023-04-20T09:54:06.742Z,98.60
2023-04-20T09:56:36.112Z,99.00
2023-04-20T09:59:04.425Z,97.40
2023-04-20T10:01:34.848Z,96.90
2023-04-20T10:04:04.324Z,97.40
2023-04-20T10:06:34.022Z,96.00
2023-04-20T10:09:03.903Z,96.40
2023-04-20T10:11:41.075Z,95.90
2023-04-20T10:14:18.974Z,95.40
2023-04-20T10:16:58.341Z,95.60
2023-04-20T10:19:36.088Z,95.50
2023-04-20T10:22:03.388Z,95.30
2023-04-20T10:24:31.710Z,94.90
2023-04-20T10:26:59.781Z,94.80
2023-04-20T10:29:28.009Z,94.70
2023-04-20T10:31:55.938Z,94.10
2023-04-20T10:34:26.477Z,94.90
2023-04-20T10:36:53.777Z,95.80
2023-04-20T10:39:23.158Z,95.50
2023-04-20T10:41:54.505Z,95.10
2023-04-20T10:44:22.158Z,95.10
2023-04-20T10:46:51.005Z,95.00
2023-04-20T10:49:18.982Z,94.60
2023-04-20T10:51:49.758Z,94.80
2023-04-20T10:54:18.451Z,93.90
2023-04-20T10:56:48.292Z,92.70
2023-04-20T10:59:17.855Z,93.70
2023-04-20T11:01:46.837Z,94.00
2023-04-20T11:04:18.376Z,93.80
2023-04-20T11:06:48.920Z,94.60
2023-04-20T11:09:19.885Z,93.50
2023-04-20T11:11:58.768Z,93.70
2023-04-20T11:14:26.106Z,93.60
2023-04-20T11:16:54.445Z,92.80
2023-04-20T11:19:26.149Z,91.80
2023-04-20T11:21:53.669Z,92.00
2023-04-20T11:24:22.955Z,91.30
2023-04-20T11:26:52.821Z,91.50
2023-04-20T11:29:23.504Z,92.30
2023-04-20T11:31:51.804Z,92.50
2023-04-20T11:34:19.356Z,93.20
2023-04-20T11:36:46.648Z,91.70
2023-04-20T11:39:14.138Z,92.30
2023-04-20T11:41:42.603Z,92.50
2023-04-20T11:44:11.209Z,93.70
2023-04-20T11:46:38.843Z,93.50
2023-04-20T11:49:05.898Z,93.10
2023-04-20T11:51:33.256Z,91.90
2023-04-20T11:54:00.336Z,94.20
2023-04-20T11:56:28.458Z,92.80
2023-04-20T11:58:55.817Z,92.70
2023-04-20T12:01:23.157Z,93.00
2023-04-20T12:03:50.495Z,92.40
2023-04-20T12:06:17.878Z,92.70
2023-04-20T12:08:44.986Z,93.00
2023-04-20T12:11:12.190Z,93.20
2023-04-20T12:13:39.419Z,91.50
2023-04-20T12:16:07.243Z,92.30
2023-04-20T12:18:34.651Z,92.30
2023-04-20T12:21:01.947Z,93.10
2023-04-20T12:23:29.116Z,90.40
2023-04-20T12:25:56.485Z,91.00
2023-04-20T12:28:23.608Z,91.10
2023-04-20T12:30:50.863Z,91.90
2023-04-20T12:33:18.058Z,91.20
2023-04-20T12:35:45.335Z,90.80
2023-04-20T12:38:14.445Z,91.20
2023-04-20T12:40:42.082Z,93.00
2023-04-20T12:43:09.414Z,91.20
2023-04-20T12:45:36.588Z,90.60
2023-04-20T12:48:03.934Z,91.40
2023-04-20T12:50:31.216Z,90.90
2023-04-20T12:52:58.919Z,90.60
2023-04-20T12:55:26.501Z,91.70
2023-04-20T12:57:53.679Z,91.40
2023-04-20T13:00:21.102Z,91.70
2023-04-20T13:02:48.405Z,91.30
2023-04-20T13:05:16.626Z,91.30
2023-04-20T13:07:43.783Z,91.90
2023-04-20T13:10:11.193Z,91.70
2023-04-20T13:12:38.405Z,91.30
2023-04-20T13:15:09.323Z,91.20
2023-04-20T13:17:36.934Z,91.90
2023-04-20T13:20:05.072Z,92.60
2023-04-20T13:22:32.507Z,92.30
2023-04-20T13:24:59.629Z,92.70
2023-04-20T13:27:26.962Z,92.60
2023-04-20T13:29:54.370Z,92.40
2023-04-20T13:32:21.578Z,91.90
2023-04-20T13:34:48.817Z,92.40
2023-04-20T13:37:16.097Z,91.20
2023-04-20T13:39:43.386Z,90.90
2023-04-20T13:42:10.768Z,90.60
2023-04-20T13:44:37.908Z,90.60
2023-04-20T13:47:05.364Z,90.20
2023-04-20T13:49:32.570Z,90.40
2023-04-20T13:51:59.800Z,87.00
2023-04-20T13:54:27.008Z,87.70
2023-04-20T13:56:54.320Z,88.20
2023-04-20T13:59:21.475Z,87.20
2023-04-20T14:01:48.710Z,87.60
2023-04-20T14:04:17.215Z,86.20
2023-04-20T14:06:44.678Z,85.00
2023-04-20T14:09:12.561Z,84.60
2023-04-20T14:11:41.199Z,83.30
2023-04-20T14:14:08.329Z,83.80
2023-04-20T14:16:44.589Z,85.10
2023-04-20T14:19:12.063Z,83.80
2023-04-20T14:21:40.498Z,81.90
2023-04-20T14:24:07.950Z,80.90
2023-04-20T14:26:35.162Z,83.40
2023-04-20T14:29:03.396Z,80.20
2023-04-20T14:31:31.349Z,82.20
2023-04-20T14:33:58.776Z,82.60
2023-04-20T14:36:27.360Z,82.30
2023-04-20T14:38:55.632Z,80.10
2023-04-20T14:41:22.954Z,81.30
2023-04-20T14:43:50.183Z,78.60
2023-04-20T14:46:18.726Z,79.80
2023-04-20T14:48:46.549Z,78.20
2023-04-20T14:51:14.292Z,77.20
2023-04-20T14:53:41.590Z,76.20
2023-04-20T14:56:08.708Z,76.10
2023-04-20T14:58:37.502Z,73.20
2023-04-20T15:01:05.137Z,74.70
2023-04-20T15:03:32.601Z,74.30
2023-04-20T15:06:01.839Z,75.60
2023-04-20T15:08:29.181Z,75.00
2023-04-20T15:10:56.603Z,74.40
2023-04-20T15:13:25.500Z,75.20
2023-04-20T15:15:57.018Z,75.90
2023-04-20T15:18:24.449Z,76.10
2023-04-20T15:20:52.824Z,76.00
2023-04-20T15:23:20.237Z,77.50
2023-04-20T15:25:47.349Z,78.20
2023-04-20T15:28:14.719Z,79.70
2023-04-20T15:30:42.470Z,79.20
2023-04-20T15:33:10.046Z,78.10
2023-04-20T15:35:37.304Z,77.00
2023-04-20T15:38:04.650Z,76.90
2023-04-20T15:40:31.821Z,77.60
2023-04-20T15:42:59.082Z,76.80
2023-04-20T15:45:26.432Z,77.40
2023-04-20T15:47:53.769Z,76.60
2023-04-20T15:50:20.890Z,77.30
2023-04-20T15:52:50.958Z,77.80
2023-04-20T15:55:18.120Z,78.70
2023-04-20T15:57:45.650Z,78.20
2023-04-20T16:00:13.685Z,79.20
2023-04-20T16:02:41.356Z,77.80
2023-04-20T16:05:09.538Z,79.50
2023-04-20T16:07:36.943Z,77.20
2023-04-20T16:10:06.758Z,78.10
2023-04-20T16:12:34.111Z,78.40
2023-04-20T16:15:02.183Z,76.50
2023-04-20T16:17:29.482Z,78.60
2023-04-20T16:19:56.623Z,77.80
2023-04-20T16:22:23.865Z,77.90
2023-04-20T16:24:51.082Z,75.60
2023-04-20T16:27:18.988Z,75.80
2023-04-20T16:29:46.279Z,72.80
2023-04-20T16:32:13.724Z,72.90
2023-04-20T16:34:41.170Z,71.60
2023-04-20T16:37:08.464Z,71.70
2023-04-20T16:39:37.414Z,72.60
2023-04-20T16:42:04.761Z,72.70
2023-04-20T16:44:31.880Z,73.10
2023-04-20T16:46:59.187Z,74.00
2023-04-20T16:49:26.374Z,73.10
2023-04-20T16:51:53.614Z,71.80
2023-04-20T16:54:21.612Z,72.50
2023-04-20T16:56:48.846Z,72.90
2023-04-20T16:59:16.044Z,71.30
2023-04-20T17:01:43.437Z,72.80
2023-04-20T17:04:10.957Z,71.00
2023-04-20T17:06:38.210Z,70.50
2023-04-20T17:09:07.367Z,71.30
2023-04-20T17:11:36.136Z,71.60
2023-04-20T17:14:03.472Z,72.40
2023-04-20T17:16:30.889Z,72.50
2023-04-20T17:18:58.083Z,74.30
2023-04-20T17:21:27.838Z,74.40
2023-04-20T17:23:56.431Z,73.90
2023-04-20T17:26:23.668Z,73.80
2023-04-20T17:28:50.769Z,73.30
2023-04-20T17:31:18.052Z,73.80
2023-04-20T17:33:45.263Z,73.90
2023-04-20T17:36:12.529Z,72.60
2023-04-20T17:38:39.720Z,73.10
2023-04-20T17:41:07.034Z,73.10
2023-04-20T17:43:36.180Z,73.80
2023-04-20T17:46:03.390Z,74.00
2023-04-20T17:48:30.608Z,73.30
2023-04-20T17:50:58.806Z,74.10
2023-04-20T17:53:26.294Z,74.70
2023-04-20T17:55:53.514Z,75.50
2023-04-20T17:58:20.694Z,76.70
2023-04-20T18:00:47.965Z,75.90
2023-04-20T18:03:15.848Z,75.30
2023-04-20T18:05:43.195Z,74.80
2023-04-20T18:08:10.543Z,72.90
2023-04-20T18:10:37.945Z,73.30
2023-04-20T18:13:06.051Z,73.50
2023-04-20T18:15:33.481Z,73.30
2023-04-20T18:18:00.812Z,73.40
2023-04-20T18:20:29.117Z,73.10
2023-04-20T18:22:57.778Z,72.80
2023-04-20T18:25:26.316Z,72.80
2023-04-20T18:27:53.577Z,72.70
2023-04-20T18:30:20.794Z,72.20
2023-04-20T18:32:48.051Z,72.50
2023-04-20T18:35:15.738Z,73.10
2023-04-20T18:37:42.893Z,73.00
2023-04-20T18:40:10.697Z,74.10
2023-04-20T18:42:37.798Z,73.50
2023-04-20T18:45:06.404Z,73.70
2023-04-20T18:47:33.921Z,73.00
2023-04-20T18:50:01.158Z,72.80
2023-04-20T18:52:28.304Z,73.90
2023-04-20T18:54:55.589Z,73.20
2023-04-20T18:57:26.249Z,72.60
2023-04-20T18:59:53.565Z,73.30
2023-04-20T19:02:21.197Z,72.80
2023-04-20T19:04:48.529Z,72.90
2023-04-20T19:07:15.825Z,73.50
2023-04-20T19:09:43.116Z,74.10
2023-04-20T19:12:10.505Z,74.00
2023-04-20T19:14:37.725Z,74.50
2023-04-20T19:17:07.342Z,74.20
2023-04-20T19:19:34.802Z,74.20
2023-04-20T19:22:03.551Z,74.20
2023-04-20T19:24:32.252Z,74.00
2023-04-20T19:26:59.515Z,74.40
2023-04-20T19:29:26.743Z,74.20
2023-04-20T19:31:54.164Z,75.10
2023-04-20T19:34:21.897Z,74.50
2023-04-20T19:36:49.096Z,75.50
2023-04-20T19:39:16.344Z,75.70
2023-04-20T19:41:43.573Z,76.00
2023-04-20T19:44:12.176Z,76.80
2023-04-20T19:46:40.804Z,77.50
2023-04-20T19:49:08.121Z,79.10
2023-04-20T19:51:35.372Z,81.30
2023-04-20T19:54:04.344Z,82.00
2023-04-20T19:56:32.119Z,83.30
2023-04-20T19:58:59.315Z,82.80
2023-04-20T20:01:26.701Z,83.50
2023-04-20T20:03:54.151Z,83.50
2023-04-20T20:06:22.899Z,83.30
2023-04-20T20:08:50.753Z,83.20
2023-04-20T20:11:18.030Z,83.00
2023-04-20T20:13:45.270Z,83.20
2023-04-20T20:16:12.685Z,82.70
2023-04-20T20:18:39.852Z,82.80
2023-04-20T20:21:07.023Z,83.30
2023-04-20T20:23:34.215Z,83.70
2023-04-20T20:26:02.688Z,84.50
2023-04-20T20:28:29.851Z,84.90
2023-04-20T20:30:57.293Z,85.50
2023-04-20T20:33:24.492Z,86.30
2023-04-20T20:35:52.679Z,87.20
2023-04-20T20:38:21.076Z,87.50
2023-04-20T20:40:50.594Z,87.90
2023-04-20T20:43:19.056Z,88.40
2023-04-20T20:45:47.603Z,88.70
2023-04-20T20:48:14.819Z,90.00
2023-04-20T20:50:42.140Z,89.70
2023-04-20T20:53:09.412Z,90.00
2023-04-20T20:55:36.649Z,90.30
2023-04-20T20:58:03.930Z,90.60
2023-04-20T21:00:31.811Z,91.00
2023-04-20T21:02:59.245Z,91.10
2023-04-20T21:05:26.560Z,91.30
2023-04-20T21:07:53.912Z,91.50
2023-04-20T21:10:21.174Z,91.80
2023-04-20T21:12:48.346Z,92.10
2023-04-20T21:15:15.560Z,92.40
2023-04-20T21:17:42.658Z,92.40
2023-04-20T21:20:10.572Z,92.70
2023-04-20T21:22:37.838Z,93.40
2023-04-20T21:25:05.603Z,93.40
2023-04-20T21:27:32.821Z,93.70
2023-04-20T21:30:00.073Z,94.00
2023-04-20T21:32:27.355Z,94.60
2023-04-20T21:34:54.633Z,94.90
2023-04-20T21:37:21.825Z,95.60
2023-04-20T21:39:50.868Z,96.10
2023-04-20T21:42:17.977Z,96.90
2023-04-20T21:44:45.313Z,97.70
2023-04-20T21:47:12.433Z,98.10
2023-04-20T21:49:39.627Z,98.70
2023-04-20T21:52:06.790Z,99.20
2023-04-20T21:54:34.790Z,99.80
2023-04-20T21:57:02.177Z,99.90
2023-04-20T21:59:29.394Z,99.90
2023-04-20T22:01:56.560Z,99.90
2023-04-20T22:04:27.212Z,99.90
2023-04-20T22:06:55.597Z,99.90
2023-04-20T22:09:23.016Z,99.90
2023-04-20T22:11:50.278Z,99.90
2023-04-20T22:14:18.035Z,99.90
2023-04-20T22:16:46.095Z,99.90
2023-04-20T22:19:13.396Z,99.90
2023-04-20T22:21:40.735Z,99.90
2023-04-20T22:24:07.935Z,99.90
2023-04-20T22:26:35.377Z,99.90
2023-04-20T22:29:02.553Z,99.90
2023-04-20T22:31:29.810Z,99.90
2023-04-20T22:33:57.187Z,99.90
2023-04-20T22:36:24.420Z,99.90
2023-04-20T22:38:51.597Z,99.90
2023-04-20T22:41:18.787Z,99.90
2023-04-20T22:43:45.931Z,99.90
2023-04-20T22:46:13.148Z,99.90
2023-04-20T22:48:41.705Z,99.90
2023-04-20T22:51:08.976Z,99.90
2023-04-20T22:53:36.139Z,99.90
2023-04-20T22:56:05.348Z,99.90
2023-04-20T22:58:32.656Z,99.90
2023-04-20T23:01:00.098Z,99.90
2023-04-20T23:03:27.796Z,99.90
2023-04-20T23:05:57.543Z,99.90
2023-04-20T23:08:25.957Z,99.90
2023-04-20T23:10:54.066Z,99.90
2023-04-20T23:13:22.183Z,99.90
2023-04-20T23:15:49.864Z,99.90
2023-04-20T23:18:16.985Z,99.90
2023-04-20T23:20:44.235Z,99.90
2023-04-20T23:23:11.788Z,99.90
2023-04-20T23:25:38.999Z,99.90
2023-04-20T23:28:06.196Z,99.90
2023-04-20T23:30:33.503Z,99.90
2023-04-20T23:33:00.732Z,99.90
2023-04-20T23:35:28.038Z,99.90
2023-04-20T23:37:55.614Z,99.90
2023-04-20T23:40:23.006Z,99.90
2023-04-20T23:42:50.738Z,99.90
2023-04-20T23:45:18.050Z,99.90
2023-04-20T23:47:45.297Z,99.90
2023-04-20T23:50:12.651Z,99.90
2023-04-20T23:52:41.200Z,99.90
2023-04-20T23:55:09.573Z,99.90
2023-04-20T23:57:36.696Z,99.90
